KLDM

Mason County Airport

Ludington, Michigan, USA
METAR KLDM 230115Z AUTO 00000KT 10SM CLR 10/09 A3004 RMK AO2 T00950086
Observed Flight Rules
May-23 @ 01:15 UTC (8 minutes ago) Visual Flight Rules
Visibility Clouds
10 miles
  • Clear skies
Temperatures Readings
Current 10°C / 50°F
Dewpoint 9°C / 48°F
Humidity 94%
Altimeter 30.04" Hg
Pressure 1017 hPa
Elevation 197
METAR KLDM 230115Z AUTO 00000KT 10SM CLR 10/09 A3004 RMK AO2 T00950086
Observed Flight Rules
May-23 @ 01:15 UTC
(8 minutes ago)
VFR
Clouds
  • Clear skies
Temperature Dewpoint
10°C / 50°F 9°C / 48°F
Humidity Altimeter Pressure
94% 30.04" Hg 1017 hPa